Time;durP1;ratioP1;P1;durP2;ratioP2;P2;SDS_P1;SDS_P2;PMS_P1;PMS_P2;Temp;Humidity;BMP_temperature;BMP_pressure;BME280_temperature;BME280_humidity;BME280_pressure;Samples;Min_cycle;Max_cycle;Signal;HPM_P1;HPM_P2
2021/11/17 02:28:53;;;;;;;21.33;13.30;;;4.00;99.90;;;;;;6110939;23;20026;-92
2021/11/17 02:32:09;;;;;;;25.13;13.95;;;4.00;99.90;;;;;;6093525;23;20019;-87
2021/11/17 02:35:15;;;;;;;26.45;13.65;;;4.00;99.90;;;;;;6090921;23;20090;-87
2021/11/17 02:38:13;;;;;;;28.63;14.60;;;4.00;99.90;;;;;;6106013;23;20038;-85
2021/11/17 02:41:22;;;;;;;27.75;15.23;;;4.00;99.90;;;;;;6101482;23;20181;-85
2021/11/17 02:44:27;;;;;;;24.30;14.38;;;4.00;99.90;;;;;;6100188;23;20030;-90
2021/11/17 02:47:26;;;;;;;24.33;14.25;;;4.00;99.90;;;;;;6179907;23;20090;-85
2021/11/17 02:50:22;;;;;;;25.35;15.05;;;4.00;99.90;;;;;;6179223;23;20031;-90
2021/11/17 02:57:58;;;;;;;23.67;13.70;;;4.00;99.90;;;;;;6221739;23;20024;-87
2021/11/17 03:01:13;;;;;;;24.45;14.25;;;3.90;99.90;;;;;;6218296;23;20033;-92
2021/11/17 03:04:15;;;;;;;24.63;13.77;;;4.00;99.90;;;;;;6182357;23;20028;-90
2021/11/17 03:11:43;;;;;;;26.15;13.73;;;4.00;99.90;;;;;;6226524;23;20118;-86
2021/11/17 03:15:29;;;;;;;26.85;14.57;;;4.00;99.90;;;;;;6210135;23;20020;-87
2021/11/17 03:18:43;;;;;;;24.40;14.52;;;3.90;99.90;;;;;;6201440;23;20111;-88
2021/11/17 03:21:59;;;;;;;;;;;;;;;;;;;;;
2021/11/17 03:25:16;;;;;;;26.88;15.30;;;3.90;99.90;;;;;;6120029;23;20036;-87
2021/11/17 03:28:26;;;;;;;30.27;16.35;;;3.90;99.90;;;;;;6123469;23;20081;-91
2021/11/17 03:32:19;;;;;;;33.42;15.48;;;3.90;99.90;;;;;;6117639;23;20049;-89
2021/11/17 03:35:58;;;;;;;;;;;;;;;;;;;;;
2021/11/17 03:43:22;;;;;;;30.17;15.07;;;3.90;99.90;;;;;;6124279;23;20034;-87
2021/11/17 03:46:50;;;;;;;28.35;14.73;;;3.80;99.90;;;;;;6130468;23;20034;-91
2021/11/17 03:50:05;;;;;;;26.55;14.02;;;3.80;99.90;;;;;;6134702;23;20026;-92
2021/11/17 03:53:19;;;;;;;26.08;14.40;;;3.80;99.90;;;;;;6132210;23;20044;-89
2021/11/17 04:01:07;;;;;;;22.70;11.50;;;3.80;99.90;;;;;;6129129;23;20148;-88
2021/11/17 04:04:59;;;;;;;23.83;12.10;;;3.80;99.90;;;;;;6122864;23;20141;-90
2021/11/17 04:07:43;;;;;;;21.25;12.00;;;3.80;99.90;;;;;;6131235;23;20076;-86
2021/11/17 04:11:04;;;;;;;;;;;;;;;;;;;;;
2021/11/17 04:14:05;;;;;;;;;;;;;;;;;;;;;
2021/11/17 04:17:33;;;;;;;21.23;12.25;;;3.80;99.90;;;;;;6131467;23;20026;-86
2021/11/17 04:24:32;;;;;;;19.35;11.50;;;3.80;99.90;;;;;;6182015;23;20114;-88
2021/11/17 04:28:05;;;;;;;18.20;11.73;;;3.70;99.90;;;;;;6172041;23;20033;-88
2021/11/17 04:31:52;;;;;;;;;;;;;;;;;;;;;
2021/11/17 04:40:19;;;;;;;18.02;11.18;;;3.70;99.90;;;;;;6120976;23;20046;-89
2021/11/17 04:43:31;;;;;;;21.35;11.60;;;3.70;99.90;;;;;;6067323;23;20027;-90
2021/11/17 04:46:36;;;;;;;17.83;11.15;;;3.70;99.90;;;;;;6072969;23;20082;-90
2021/11/17 04:50:34;;;;;;;21.10;10.10;;;3.70;99.90;;;;;;6140991;23;20096;-89
2021/11/17 04:54:04;;;;;;;19.02;11.23;;;3.70;99.90;;;;;;6195061;23;20021;-88
2021/11/17 04:57:45;;;;;;;;;;;;;;;;;;;;;
2021/11/17 05:01:19;;;;;;;18.45;11.15;;;3.70;99.90;;;;;;6074915;23;20027;-88
2021/11/17 05:09:17;;;;;;;18.27;10.82;;;3.70;99.90;;;;;;6017853;23;20076;-88
2021/11/17 05:12:29;;;;;;;18.20;10.77;;;3.70;99.90;;;;;;6109913;23;20113;-92
2021/11/17 05:16:06;;;;;;;18.25;10.55;;;3.80;99.90;;;;;;6198781;23;20104;-91
2021/11/17 05:19:15;;;;;;;;;;;;;;;;;;;;;
2021/11/17 05:22:37;;;;;;;21.58;11.15;;;3.80;99.90;;;;;;6192390;23;20025;-87
2021/11/17 05:26:03;;;;;;;18.55;10.88;;;3.70;99.90;;;;;;6194685;23;20039;-88
2021/11/17 05:29:25;;;;;;;19.83;10.23;;;3.80;99.90;;;;;;6197030;23;20036;-89
2021/11/17 05:32:47;;;;;;;21.00;12.55;;;3.70;99.90;;;;;;6195829;23;20021;-90
2021/11/17 05:36:25;;;;;;;19.67;11.57;;;3.70;99.90;;;;;;6194317;23;20056;-85
2021/11/17 05:39:54;;;;;;;20.80;11.23;;;3.70;99.90;;;;;;6189581;23;20048;-88
2021/11/17 05:55:22;;;;;;;21.00;12.02;;;3.70;99.90;;;;;;6139536;23;20417;-85
2021/11/17 05:58:53;;;;;;;26.17;13.47;;;3.70;99.90;;;;;;6139832;23;20025;-88
2021/11/17 06:15:45;;;;;;;27.70;13.45;;;3.70;99.90;;;;;;6242003;22;20019;-87
2021/11/17 06:18:35;;;;;;;26.33;14.45;;;3.70;99.90;;;;;;6220767;23;20596;-87
2021/11/17 06:21:25;;;;;;;27.08;14.10;;;3.70;99.90;;;;;;6216704;23;20036;-87
2021/11/17 06:24:16;;;;;;;28.73;14.05;;;3.70;99.90;;;;;;6198005;23;20102;-87
2021/11/17 06:27:06;;;;;;;22.92;14.55;;;3.70;99.90;;;;;;6218191;23;20040;-89
2021/11/17 06:29:58;;;;;;;24.42;14.27;;;3.70;99.90;;;;;;6219199;23;20032;-87
2021/11/17 06:32:46;;;;;;;29.40;14.15;;;3.70;99.90;;;;;;6194381;23;20036;-88
2021/11/17 06:35:35;;;;;;;31.35;15.52;;;3.70;99.90;;;;;;6216574;23;20040;-88
2021/11/17 06:38:27;;;;;;;30.88;16.55;;;3.70;99.90;;;;;;6196338;23;20361;-87
2021/11/17 06:41:53;;;;;;;32.45;16.10;;;3.70;99.90;;;;;;6202054;23;20032;-89
2021/11/17 06:46:03;;;;;;;29.08;15.73;;;3.70;99.90;;;;;;6075202;23;20042;-90
2021/11/17 06:53:34;;;;;;;35.03;17.88;;;3.70;99.90;;;;;;5901067;24;20125;-87
2021/11/17 06:56:28;;;;;;;35.78;18.95;;;3.70;99.90;;;;;;5882503;24;20044;-85
2021/11/17 06:59:23;;;;;;;32.60;16.25;;;3.70;99.90;;;;;;6040613;23;20137;-89
2021/11/17 07:02:28;;;;;;;31.67;16.70;;;3.70;99.90;;;;;;6077728;23;20027;-86
2021/11/17 07:05:38;;;;;;;36.30;17.30;;;3.70;99.90;;;;;;6081891;23;20078;-84
2021/11/17 07:08:35;;;;;;;30.77;16.27;;;3.70;99.90;;;;;;6208557;23;20030;-91
2021/11/17 07:11:44;;;;;;;29.05;16.25;;;3.70;99.90;;;;;;6227414;23;20025;-89
2021/11/17 07:14:39;;;;;;;26.50;14.27;;;3.70;99.90;;;;;;6203852;23;20114;-83
2021/11/17 07:17:47;;;;;;;31.63;16.42;;;3.70;99.90;;;;;;6129994;23;20049;-88
2021/11/17 07:20:58;;;;;;;32.45;16.17;;;3.70;99.90;;;;;;6132467;23;20026;-90
2021/11/17 07:24:33;;;;;;;;;;;;;;;;;;;;;
2021/11/17 07:28:28;;;;;;;;;;;;;;;;;;;;;
2021/11/17 07:36:24;;;;;;;;;;;;;;;;;;;;;
2021/11/17 07:39:40;;;;;;;24.88;13.98;;;3.90;99.90;;;;;;5849513;24;20030;-88
2021/11/17 07:43:11;;;;;;;25.38;14.02;;;3.90;99.90;;;;;;5854532;24;20053;-91
2021/11/17 07:50:06;;;;;;;;;;;;;;;;;;;;;
2021/11/17 07:53:25;;;;;;;25.02;14.20;;;3.90;99.90;;;;;;6018573;23;20034;-92
2021/11/17 07:56:20;;;;;;;24.75;13.32;;;4.00;99.90;;;;;;6184356;23;20021;-88
2021/11/17 07:59:14;;;;;;;22.85;12.73;;;4.00;99.90;;;;;;6193548;23;20098;-89
2021/11/17 08:02:10;;;;;;;21.83;13.38;;;3.90;99.90;;;;;;6218567;23;20025;-87
2021/11/17 08:04:57;;;;;;;25.73;14.48;;;3.90;99.90;;;;;;6217065;23;20029;-89
2021/11/17 08:07:47;;;;;;;23.20;13.43;;;4.00;99.90;;;;;;6218480;23;20029;-89
2021/11/17 08:10:38;;;;;;;27.40;14.52;;;4.00;99.90;;;;;;6195527;23;20393;-88
2021/11/17 08:13:37;;;;;;;21.27;12.57;;;4.10;99.90;;;;;;6219781;23;20021;-90
2021/11/17 08:16:29;;;;;;;22.05;13.15;;;4.10;99.90;;;;;;6200015;23;20037;-93
2021/11/17 08:20:12;;;;;;;;;;;;;;;;;;;;;
2021/11/17 08:28:12;;;;;;;17.08;9.70;;;4.20;99.90;;;;;;6036862;23;20066;-91
2021/11/17 08:40:08;;;;;;;17.63;7.97;;;4.30;99.90;;;;;;6223774;22;19904;-84
2021/11/17 08:43:03;;;;;;;15.85;8.10;;;4.40;99.90;;;;;;6094774;23;20077;-86
2021/11/17 08:45:56;;;;;;;19.20;8.88;;;4.40;99.90;;;;;;6079294;23;20036;-90
2021/11/17 08:48:55;;;;;;;11.27;7.63;;;4.40;99.90;;;;;;6199652;23;20025;-87
2021/11/17 08:51:42;;;;;;;14.50;7.72;;;4.40;99.90;;;;;;6196054;23;20024;-88
2021/11/17 08:59:11;;;;;;;13.18;7.05;;;4.40;99.90;;;;;;6162987;23;20104;-90
2021/11/17 09:02:00;;;;;;;10.27;6.20;;;4.40;99.90;;;;;;6182883;23;20028;-85
2021/11/17 09:04:48;;;;;;;11.85;7.38;;;4.40;99.90;;;;;;6197820;23;20055;-84
2021/11/17 09:07:53;;;;;;;10.07;6.47;;;4.40;99.90;;;;;;6218443;23;20044;-87
2021/11/17 09:11:05;;;;;;;14.23;6.63;;;4.30;99.90;;;;;;6171084;23;20028;-89
2021/11/17 09:17:52;;;;;;;12.25;7.10;;;4.40;99.90;;;;;;6069795;23;20450;-88
2021/11/17 09:21:20;;;;;;;9.45;6.45;;;4.40;99.90;;;;;;6069176;23;20042;-90
2021/11/17 09:29:20;;;;;;;10.88;6.15;;;4.30;99.90;;;;;;5986814;24;20039;-90
2021/11/17 09:32:31;;;;;;;8.93;5.75;;;4.30;99.90;;;;;;5955673;24;20432;-89
2021/11/17 09:35:35;;;;;;;7.05;4.90;;;4.40;99.90;;;;;;5966111;24;20028;-89
2021/11/17 09:39:49;;;;;;;;;;;;;;;;;;;;;
2021/11/17 09:42:36;;;;;;;6.80;4.60;;;4.40;99.90;;;;;;5901831;24;20017;-86
2021/11/17 09:45:50;;;;;;;5.35;4.35;;;4.30;99.90;;;;;;5903031;24;20103;-89
2021/11/17 09:49:05;;;;;;;7.45;4.88;;;4.30;99.90;;;;;;6064434;23;20053;-86
2021/11/17 09:52:26;;;;;;;7.60;4.80;;;4.40;99.90;;;;;;6076373;23;20370;-86
2021/11/17 09:55:29;;;;;;;7.38;4.97;;;4.40;99.90;;;;;;6171474;23;20020;-89
2021/11/17 09:58:30;;;;;;;5.95;4.50;;;4.40;99.90;;;;;;6218934;23;20048;-89
2021/11/17 10:01:41;;;;;;;9.05;4.53;;;4.40;99.90;;;;;;6217611;23;20028;-88
2021/11/17 10:04:39;;;;;;;7.13;5.25;;;4.40;99.90;;;;;;6196636;23;20285;-89
2021/11/17 10:16:35;;;;;;;8.88;5.45;;;4.40;99.90;;;;;;6220837;23;20051;-88
2021/11/17 10:20:11;;;;;;;6.38;4.80;;;4.30;99.90;;;;;;6201501;23;20397;-85
2021/11/17 10:27:36;;;;;;;6.65;5.28;;;4.50;99.90;;;;;;6127167;23;20013;-89
2021/11/17 10:30:54;;;;;;;7.00;4.93;;;4.70;99.90;;;;;;6199245;23;20052;-88
2021/11/17 10:34:02;;;;;;;6.15;4.80;;;4.90;99.90;;;;;;6169514;23;20667;-88
2021/11/17 10:37:42;;;;;;;5.88;4.10;;;5.00;99.90;;;;;;6173871;23;20069;-91
2021/11/17 10:46:24;;;;;;;5.88;4.18;;;5.10;99.90;;;;;;5959853;24;20119;-90
2021/11/17 10:53:41;;;;;;;5.03;3.55;;;5.10;99.90;;;;;;6003872;23;20070;-87
2021/11/17 10:56:35;;;;;;;5.38;3.83;;;5.20;99.90;;;;;;6023274;23;20030;-88
2021/11/17 10:59:25;;;;;;;6.72;3.67;;;5.00;99.90;;;;;;6094771;23;20093;-89
2021/11/17 11:02:19;;;;;;;5.70;3.55;;;5.10;99.90;;;;;;6133299;23;20021;-87
2021/11/17 11:05:22;;;;;;;5.47;3.13;;;5.10;99.90;;;;;;6186140;23;20052;-88
2021/11/17 11:08:27;;;;;;;6.35;3.42;;;5.00;99.90;;;;;;6184640;23;20033;-89
2021/11/17 11:11:35;;;;;;;5.25;3.65;;;5.00;99.90;;;;;;6167117;23;20021;-86
2021/11/17 11:14:55;;;;;;;4.35;3.38;;;5.10;99.90;;;;;;6187719;23;20021;-87
2021/11/17 11:18:21;;;;;;;;;;;;;;;;;;;;;
2021/11/17 11:21:46;;;;;;;8.10;3.88;;;5.00;99.90;;;;;;6187500;23;20108;-87
2021/11/17 11:24:41;;;;;;;5.65;3.83;;;5.00;99.90;;;;;;6183592;23;20039;-88
2021/11/17 11:27:35;;;;;;;4.70;3.38;;;5.00;99.90;;;;;;6164430;23;20087;-88
2021/11/17 11:30:45;;;;;;;;;;;;;;;;;;;;;
2021/11/17 11:33:54;;;;;;;5.82;3.40;;;5.20;99.90;;;;;;6186445;23;20112;-88
2021/11/17 11:41:23;;;;;;;4.75;3.30;;;5.40;99.90;;;;;;6100289;23;20092;-90
2021/11/17 11:44:20;;;;;;;4.00;3.05;;;5.50;99.90;;;;;;6081619;23;20354;-85
2021/11/17 11:47:09;;;;;;;4.32;3.00;;;5.50;99.90;;;;;;6095867;23;20026;-89
2021/11/17 11:58:16;;;;;;;4.30;2.90;;;5.30;99.90;;;;;;6123511;23;20038;-88
2021/11/17 12:01:42;;;;;;;5.10;3.28;;;5.20;99.90;;;;;;6103707;23;20117;-86
2021/11/17 12:05:50;;;;;;;3.00;2.33;;;5.10;99.90;;;;;;5955316;24;20215;-85
2021/11/17 12:08:53;;;;;;;6.18;3.00;;;5.00;99.90;;;;;;5915333;24;20017;-87
2021/11/17 12:12:01;;;;;;;3.28;2.65;;;5.00;99.90;;;;;;5938316;23;20024;-84
2021/11/17 12:15:40;;;;;;;3.28;2.97;;;4.90;99.90;;;;;;6008577;23;20043;-83
2021/11/17 12:18:56;;;;;;;3.40;2.80;;;4.90;99.90;;;;;;6006065;23;20023;-88
2021/11/17 12:21:44;;;;;;;4.38;3.40;;;4.90;99.90;;;;;;6014380;23;20025;-87
2021/11/17 12:25:39;;;;;;;3.88;3.17;;;5.00;99.90;;;;;;6022359;23;20031;-91
2021/11/17 12:28:31;;;;;;;3.60;2.85;;;5.00;99.90;;;;;;6158478;23;20033;-86
2021/11/17 12:31:32;;;;;;;4.10;3.40;;;5.10;99.90;;;;;;6163053;23;20029;-88
2021/11/17 12:35:12;;;;;;;4.75;3.80;;;5.10;99.90;;;;;;6182910;23;20028;-91
2021/11/17 12:38:17;;;;;;;5.30;3.87;;;5.10;99.90;;;;;;6182354;23;20079;-86
2021/11/17 12:41:11;;;;;;;4.88;3.15;;;5.10;99.90;;;;;;6162764;23;20293;-84
2021/11/17 12:44:09;;;;;;;4.57;3.28;;;5.10;99.90;;;;;;6161713;23;20031;-85
2021/11/17 12:47:28;;;;;;;4.47;3.60;;;5.10;99.90;;;;;;6163213;23;20105;-84
2021/11/17 12:50:30;;;;;;;4.18;3.75;;;5.10;99.90;;;;;;6182924;23;20028;-84
2021/11/17 12:53:41;;;;;;;6.20;3.50;;;5.10;99.90;;;;;;6182909;23;20145;-86
2021/11/17 12:56:35;;;;;;;6.40;3.80;;;5.10;99.90;;;;;;6161064;23;20334;-83
2021/11/17 12:59:58;;;;;;;5.38;3.67;;;5.10;99.90;;;;;;6162901;23;20055;-85
2021/11/17 13:03:04;;;;;;;4.07;3.30;;;5.10;99.90;;;;;;6147260;23;20017;-84
2021/11/17 13:06:17;;;;;;;5.43;3.20;;;5.10;99.90;;;;;;6185002;23;20412;-86
2021/11/17 13:09:29;;;;;;;3.92;3.08;;;5.10;99.90;;;;;;6166174;23;20076;-90
2021/11/17 13:12:32;;;;;;;5.05;3.85;;;5.10;99.90;;;;;;6184910;23;20083;-87
2021/11/17 13:15:25;;;;;;;3.92;3.25;;;5.10;99.90;;;;;;6182541;23;20104;-84
2021/11/17 13:18:49;;;;;;;4.78;3.60;;;5.10;99.90;;;;;;6161721;23;20055;-86
2021/11/17 13:21:54;;;;;;;5.57;3.72;;;5.10;99.90;;;;;;6182656;23;20352;-86
2021/11/17 13:28:55;;;;;;;6.00;3.72;;;5.10;99.90;;;;;;6184802;23;20057;-85
2021/11/17 13:32:58;;;;;;;3.22;2.63;;;5.10;99.90;;;;;;6165271;23;20025;-88
2021/11/17 13:35:46;;;;;;;4.47;3.30;;;5.10;99.90;;;;;;6178539;23;20440;-87
2021/11/17 13:38:40;;;;;;;3.47;2.63;;;5.10;99.90;;;;;;6184688;23;20025;-84
2021/11/17 13:41:28;;;;;;;4.25;2.78;;;5.10;99.90;;;;;;6163285;23;20408;-90
2021/11/17 13:44:27;;;;;;;4.78;3.47;;;5.10;99.90;;;;;;6164344;23;20043;-87
2021/11/17 13:47:35;;;;;;;4.82;3.30;;;5.20;99.90;;;;;;6184475;23;20025;-90
2021/11/17 13:50:30;;;;;;;5.85;4.20;;;5.20;99.90;;;;;;6162316;23;20088;-87
2021/11/17 13:53:21;;;;;;;4.38;3.05;;;5.20;99.90;;;;;;6184052;23;20112;-84
2021/11/17 13:56:30;;;;;;;6.63;2.78;;;5.20;99.90;;;;;;6184352;23;20029;-85
2021/11/17 13:59:20;;;;;;;3.97;2.88;;;5.10;99.90;;;;;;6185553;23;20048;-84
2021/11/17 14:02:08;;;;;;;3.92;3.50;;;5.00;99.90;;;;;;6181884;23;20033;-89
2021/11/17 14:04:56;;;;;;;4.88;3.55;;;5.00;99.90;;;;;;6184098;23;20087;-84
2021/11/17 14:07:44;;;;;;;8.65;4.65;;;5.00;99.90;;;;;;6187176;23;20055;-89
2021/11/17 14:10:35;;;;;;;5.43;4.60;;;5.00;99.90;;;;;;6184641;23;20047;-87
2021/11/17 14:13:22;;;;;;;6.25;4.50;;;4.90;99.90;;;;;;6182764;23;20054;-86
2021/11/17 14:16:11;;;;;;;7.60;4.55;;;4.90;99.90;;;;;;6183841;23;20036;-87
2021/11/17 14:18:59;;;;;;;7.43;4.47;;;4.80;99.90;;;;;;6208070;23;20021;-84
2021/11/17 14:21:46;;;;;;;6.95;4.75;;;4.90;99.90;;;;;;6185797;23;20024;-81
2021/11/17 14:24:39;;;;;;;5.82;4.32;;;4.80;99.90;;;;;;6186234;23;20009;-79
2021/11/17 14:27:26;;;;;;;5.13;4.18;;;4.90;99.90;;;;;;6185543;23;20017;-85
2021/11/17 14:30:30;;;;;;;6.90;4.50;;;5.00;99.90;;;;;;6210190;23;20029;-85
2021/11/17 14:33:24;;;;;;;8.18;4.32;;;5.10;99.90;;;;;;6179650;23;20043;-85
2021/11/17 14:36:14;;;;;;;5.20;4.07;;;5.10;99.90;;;;;;6173980;23;20089;-85
2021/11/17 14:39:06;;;;;;;6.90;4.20;;;5.10;99.90;;;;;;6170494;23;20025;-86
2021/11/17 14:41:54;;;;;;;4.75;3.83;;;5.10;99.90;;;;;;6162639;23;20029;-85
2021/11/17 14:44:47;;;;;;;9.05;5.50;;;5.10;99.90;;;;;;6162280;23;20277;-85
2021/11/17 14:47:37;;;;;;;8.82;5.38;;;5.00;99.90;;;;;;6163151;23;20099;-85
2021/11/17 14:50:25;;;;;;;7.85;4.43;;;5.00;99.90;;;;;;6162312;23;20043;-86
2021/11/17 14:53:14;;;;;;;8.70;5.28;;;4.90;99.90;;;;;;6161872;23;20025;-86
2021/11/17 14:56:01;;;;;;;9.63;5.63;;;4.90;99.90;;;;;;6162674;23;20025;-84
2021/11/17 14:58:52;;;;;;;7.35;5.28;;;4.90;99.90;;;;;;6184089;23;20048;-86
2021/11/17 15:01:42;;;;;;;10.05;6.38;;;4.90;99.90;;;;;;6163225;23;20044;-86
2021/11/17 15:04:34;;;;;;;9.48;5.93;;;4.80;99.90;;;;;;6183654;23;20036;-83
2021/11/17 15:07:22;;;;;;;12.10;5.60;;;4.80;99.90;;;;;;6185567;23;20032;-84
2021/11/17 15:10:14;;;;;;;9.80;6.03;;;4.70;99.90;;;;;;6183085;23;20033;-88
2021/11/17 15:13:06;;;;;;;9.38;6.22;;;4.70;99.90;;;;;;6182531;23;20017;-87
2021/11/17 15:15:55;;;;;;;6.25;4.70;;;4.60;99.90;;;;;;6183794;23;20021;-83
2021/11/17 15:18:45;;;;;;;7.90;5.38;;;4.60;99.90;;;;;;6161123;23;20163;-88
2021/11/17 15:21:35;;;;;;;8.10;5.63;;;4.60;99.90;;;;;;6184980;23;20405;-88
2021/11/17 15:24:24;;;;;;;9.50;5.20;;;4.60;99.90;;;;;;6162992;23;20056;-84
2021/11/17 15:27:31;;;;;;;6.82;5.45;;;4.50;99.90;;;;;;6182590;23;20451;-88
2021/11/17 15:30:31;;;;;;;8.05;5.60;;;4.50;99.90;;;;;;6182729;23;20032;-86
2021/11/17 15:33:19;;;;;;;5.85;5.00;;;4.50;99.90;;;;;;6183667;23;20051;-90
2021/11/17 15:36:10;;;;;;;10.57;4.95;;;4.50;99.90;;;;;;6184292;23;20033;-86
2021/11/17 15:38:57;;;;;;;7.00;5.45;;;4.60;99.90;;;;;;6163557;23;20025;-84
2021/11/17 15:41:47;;;;;;;10.60;5.32;;;4.60;99.90;;;;;;6165411;23;20025;-87
2021/11/17 15:44:52;;;;;;;9.02;5.85;;;4.60;99.90;;;;;;6183265;23;20021;-85
2021/11/17 15:47:41;;;;;;;7.95;5.43;;;4.60;99.90;;;;;;6162214;23;20051;-88
2021/11/17 15:50:41;;;;;;;10.43;5.63;;;4.60;99.90;;;;;;6163810;23;20091;-88
2021/11/17 15:53:28;;;;;;;7.97;5.70;;;4.60;99.90;;;;;;6162320;23;20467;-87
2021/11/17 15:56:16;;;;;;;8.43;5.82;;;4.60;99.90;;;;;;6182366;23;20028;-87
2021/11/17 15:59:04;;;;;;;8.88;5.53;;;4.50;99.90;;;;;;6165088;23;20244;-89
2021/11/17 16:02:08;;;;;;;9.25;6.95;;;4.50;99.90;;;;;;6162017;23;20159;-88
2021/11/17 16:04:58;;;;;;;8.98;5.30;;;4.50;99.90;;;;;;6167574;23;20033;-87
2021/11/17 16:08:18;;;;;;;8.40;5.38;;;4.50;99.90;;;;;;6164151;23;20381;-87
2021/11/17 16:11:10;;;;;;;15.73;7.13;;;4.40;99.90;;;;;;6164800;23;20413;-85
2021/11/17 16:14:17;;;;;;;;;;;;;;;;;;;;;
2021/11/17 16:17:22;;;;;;;15.75;9.13;;;4.40;99.90;;;;;;6188561;23;20068;-89
2021/11/17 16:20:45;;;;;;;24.60;11.65;;;4.40;99.90;;;;;;6163880;23;20021;-89
2021/11/17 16:27:16;;;;;;;13.45;7.07;;;4.40;99.90;;;;;;6186727;23;20111;-87
2021/11/17 16:30:05;;;;;;;8.18;5.63;;;4.40;99.90;;;;;;6162330;23;20412;-84
2021/11/17 16:33:15;;;;;;;;;;;;;;;;;;;;;
2021/11/17 16:36:39;;;;;;;11.27;5.40;;;4.40;99.90;;;;;;6187159;23;20109;-91
2021/11/17 16:39:27;;;;;;;7.85;5.60;;;4.40;99.90;;;;;;6182306;23;20025;-88
2021/11/17 16:42:15;;;;;;;9.90;6.10;;;4.40;99.90;;;;;;6184010;23;20025;-85
2021/11/17 16:45:08;;;;;;;10.50;5.88;;;4.40;99.90;;;;;;6162742;23;20025;-86
2021/11/17 16:47:55;;;;;;;10.23;6.15;;;4.40;99.90;;;;;;6184091;23;20096;-86
2021/11/17 16:50:46;;;;;;;9.10;6.00;;;4.40;99.90;;;;;;6164303;23;20103;-89
2021/11/17 16:53:34;;;;;;;6.10;4.85;;;4.40;99.90;;;;;;6184423;23;20036;-83
2021/11/17 16:56:21;;;;;;;9.65;5.88;;;4.40;99.90;;;;;;6186356;23;20079;-85
2021/11/17 16:59:17;;;;;;;9.38;6.18;;;4.40;99.90;;;;;;6164297;23;20029;-85
2021/11/17 17:02:08;;;;;;;7.20;5.07;;;4.40;99.90;;;;;;6163052;23;20029;-86
2021/11/17 17:04:56;;;;;;;6.72;5.10;;;4.40;99.90;;;;;;6164791;23;20025;-87
2021/11/17 17:07:45;;;;;;;8.63;5.50;;;4.40;99.90;;;;;;6170071;23;20021;-87
2021/11/17 17:10:34;;;;;;;8.75;4.88;;;4.40;99.90;;;;;;6171757;23;20091;-87
2021/11/17 17:13:36;;;;;;;8.48;6.07;;;4.40;99.90;;;;;;6170656;23;20115;-88
2021/11/17 17:16:25;;;;;;;7.03;5.20;;;4.40;99.90;;;;;;6171019;23;20036;-88
2021/11/17 17:19:13;;;;;;;7.50;5.43;;;4.40;99.90;;;;;;6186931;23;20101;-88
2021/11/17 17:22:06;;;;;;;7.82;5.95;;;4.40;99.90;;;;;;6188865;23;20025;-88
2021/11/17 17:24:54;;;;;;;9.88;4.85;;;4.30;99.90;;;;;;6162986;23;20145;-86
2021/11/17 17:27:42;;;;;;;10.63;5.40;;;4.30;99.90;;;;;;6166658;23;20021;-86
2021/11/17 17:30:32;;;;;;;9.15;5.32;;;4.40;99.90;;;;;;6185501;23;20306;-86
2021/11/17 17:33:25;;;;;;;9.75;5.25;;;4.40;99.90;;;;;;6162713;23;20025;-85
2021/11/17 17:36:13;;;;;;;6.97;5.43;;;4.40;99.90;;;;;;6165911;23;20108;-83
2021/11/17 17:39:04;;;;;;;5.90;4.80;;;4.40;99.90;;;;;;6171054;23;20032;-86
2021/11/17 17:41:52;;;;;;;6.57;5.28;;;4.40;99.90;;;;;;6163062;23;20087;-84
2021/11/17 17:44:43;;;;;;;9.13;5.65;;;4.40;99.90;;;;;;6165657;23;20041;-84
2021/11/17 17:47:31;;;;;;;6.80;5.38;;;4.40;99.90;;;;;;6184999;23;20083;-85
2021/11/17 17:50:22;;;;;;;12.15;7.28;;;4.40;99.90;;;;;;6162682;23;20421;-85
2021/11/17 17:53:14;;;;;;;12.52;7.55;;;4.40;99.90;;;;;;6183713;23;20036;-81
2021/11/17 17:56:32;;;;;;;10.85;7.13;;;4.40;99.90;;;;;;6169892;23;20404;-86
2021/11/17 17:59:20;;;;;;;10.45;6.55;;;4.40;99.90;;;;;;6167095;23;20475;-83
2021/11/17 18:02:09;;;;;;;10.95;6.10;;;4.40;99.90;;;;;;6187912;23;20052;-82
2021/11/17 18:04:57;;;;;;;9.88;6.40;;;4.40;99.90;;;;;;6190560;23;20024;-83
2021/11/17 18:07:53;;;;;;;13.40;8.45;;;4.30;99.90;;;;;;6171498;23;20594;-86
2021/11/17 18:10:49;;;;;;;11.00;6.82;;;4.30;99.90;;;;;;6196454;23;20025;-84
2021/11/17 18:13:41;;;;;;;11.70;6.55;;;4.40;99.90;;;;;;6163557;23;20032;-84
2021/11/17 18:16:28;;;;;;;9.00;6.45;;;4.30;99.90;;;;;;6164085;23;20405;-84
2021/11/17 18:19:20;;;;;;;13.73;7.40;;;4.30;99.90;;;;;;6146232;23;20029;-88
2021/11/17 18:22:07;;;;;;;12.85;7.97;;;4.30;99.90;;;;;;6163930;23;20025;-85
2021/11/17 18:24:55;;;;;;;13.23;8.80;;;4.30;99.90;;;;;;6162916;23;20067;-85
2021/11/17 18:27:43;;;;;;;13.13;8.57;;;4.30;99.90;;;;;;6189159;23;20344;-87
2021/11/17 18:30:31;;;;;;;20.83;10.93;;;4.30;99.90;;;;;;6190694;23;20110;-84
2021/11/17 18:33:19;;;;;;;21.98;11.63;;;4.30;99.90;;;;;;6166614;23;20107;-88
2021/11/17 18:36:07;;;;;;;20.92;11.10;;;4.30;99.90;;;;;;6167222;23;20025;-87
2021/11/17 18:38:58;;;;;;;15.48;10.10;;;4.30;99.90;;;;;;6161461;23;20029;-86
2021/11/17 18:41:54;;;;;;;14.88;8.95;;;4.30;99.90;;;;;;6169054;23;20025;-87
2021/11/17 18:44:47;;;;;;;12.43;8.77;;;4.30;99.90;;;;;;6186678;23;20029;-89
2021/11/17 18:47:42;;;;;;;11.52;7.78;;;4.30;99.90;;;;;;6164025;23;20100;-86
2021/11/17 18:51:00;;;;;;;10.85;7.82;;;4.30;99.90;;;;;;6164031;23;20024;-87
2021/11/17 18:53:52;;;;;;;16.65;7.47;;;4.30;99.90;;;;;;6175662;23;20164;-85
2021/11/17 18:56:47;;;;;;;11.93;8.02;;;4.30;99.90;;;;;;6188289;23;20052;-86
2021/11/17 18:59:38;;;;;;;11.30;8.55;;;4.30;99.90;;;;;;6164263;23;20029;-88
2021/11/17 19:02:27;;;;;;;13.98;8.85;;;4.30;99.90;;;;;;6162157;23;20047;-87
2021/11/17 19:05:49;;;;;;;;;;;;;;;;;;;;;
2021/11/17 19:08:39;;;;;;;14.20;8.57;;;4.30;99.90;;;;;;6186360;23;20420;-84
2021/11/17 19:11:54;;;;;;;18.15;8.95;;;4.30;99.90;;;;;;6163734;23;20021;-88
2021/11/17 19:14:42;;;;;;;25.30;14.68;;;4.30;99.90;;;;;;6165677;23;20029;-86
2021/11/17 19:17:32;;;;;;;15.63;8.73;;;4.30;99.90;;;;;;6165125;23;20040;-87
2021/11/17 19:20:22;;;;;;;16.63;10.27;;;4.30;99.90;;;;;;6184626;23;20100;-89
2021/11/17 19:23:11;;;;;;;16.40;10.18;;;4.30;99.90;;;;;;6164745;23;20033;-87
2021/11/17 19:26:05;;;;;;;17.73;9.60;;;4.30;99.90;;;;;;6168568;23;20029;-88
2021/11/17 19:29:03;;;;;;;12.30;8.77;;;4.30;99.90;;;;;;6167681;23;20029;-89
2021/11/17 19:31:53;;;;;;;14.32;9.10;;;4.30;99.90;;;;;;6173346;23;20074;-88
2021/11/17 19:34:42;;;;;;;15.32;9.57;;;4.30;99.90;;;;;;6165543;23;20021;-88
2021/11/17 19:37:32;;;;;;;13.82;9.80;;;4.30;99.90;;;;;;6166620;23;20118;-89
2021/11/17 19:40:22;;;;;;;13.10;9.57;;;4.30;99.90;;;;;;6187518;23;20093;-89
2021/11/17 19:43:17;;;;;;;16.48;10.73;;;4.30;99.90;;;;;;6188332;23;20053;-88
2021/11/17 19:46:06;;;;;;;23.63;13.23;;;4.20;99.90;;;;;;6192999;23;20091;-87
2021/11/17 19:49:06;;;;;;;25.33;15.38;;;4.20;99.90;;;;;;6197099;23;20063;-88
2021/11/17 19:52:03;;;;;;;30.08;17.45;;;4.20;99.90;;;;;;6144522;23;20031;-89
2021/11/17 19:54:57;;;;;;;24.08;15.52;;;4.20;99.90;;;;;;6171969;23;20028;-88
2021/11/17 19:57:45;;;;;;;22.42;13.77;;;4.20;99.90;;;;;;6180053;23;20080;-88
2021/11/17 20:00:37;;;;;;;26.70;16.27;;;4.20;99.90;;;;;;6177372;23;20021;-86
2021/11/17 20:03:27;;;;;;;27.52;16.67;;;4.20;99.90;;;;;;6187996;23;20033;-86
2021/11/17 20:06:20;;;;;;;23.60;14.52;;;4.30;99.90;;;;;;6177916;23;20032;-85
2021/11/17 20:09:09;;;;;;;26.45;16.42;;;4.30;99.90;;;;;;6197110;23;20025;-85
2021/11/17 20:11:57;;;;;;;25.65;16.27;;;4.30;99.90;;;;;;6170964;23;20021;-85
2021/11/17 20:14:48;;;;;;;29.45;17.70;;;4.30;99.90;;;;;;6163948;23;20021;-87
2021/11/17 20:17:36;;;;;;;25.75;16.23;;;4.30;99.90;;;;;;6166690;23;20021;-86
2021/11/17 20:20:24;;;;;;;19.55;13.88;;;4.30;99.90;;;;;;6184420;23;20025;-86
2021/11/17 20:23:13;;;;;;;28.00;18.00;;;4.20;99.90;;;;;;6184325;23;20044;-86
2021/11/17 20:26:06;;;;;;;29.42;18.92;;;4.20;99.90;;;;;;6166590;23;20024;-87
2021/11/17 20:28:56;;;;;;;25.05;16.17;;;4.20;99.90;;;;;;6187299;23;20108;-85
2021/11/17 20:31:48;;;;;;;26.85;16.77;;;4.20;99.90;;;;;;6144802;23;20036;-86
2021/11/17 20:34:40;;;;;;;21.05;13.45;;;4.20;99.90;;;;;;6165288;23;20021;-86
2021/11/17 20:37:29;;;;;;;26.35;15.77;;;4.20;99.90;;;;;;6184714;23;20028;-86
2021/11/17 20:40:19;;;;;;;24.60;18.10;;;4.20;99.90;;;;;;6184014;23;20021;-86
2021/11/17 20:43:10;;;;;;;22.77;15.77;;;4.20;99.90;;;;;;6184980;23;20017;-85
2021/11/17 20:45:58;;;;;;;21.77;16.45;;;4.20;99.90;;;;;;6185787;23;20128;-88
2021/11/17 20:48:51;;;;;;;32.22;20.13;;;4.20;99.90;;;;;;6183152;23;20111;-86
2021/11/17 20:51:42;;;;;;;47.35;30.95;;;4.20;99.90;;;;;;6165516;23;20017;-85
2021/11/17 20:54:30;;;;;;;45.75;28.90;;;4.20;99.90;;;;;;6187310;23;20405;-85
2021/11/17 20:57:22;;;;;;;33.17;20.63;;;4.20;99.90;;;;;;6173833;23;20021;-87
2021/11/17 21:00:16;;;;;;;21.20;15.25;;;4.20;99.90;;;;;;6173535;23;20025;-86
2021/11/17 21:03:03;;;;;;;23.25;14.90;;;4.20;99.90;;;;;;6164156;23;20632;-84